sensor_id;sensor_type;location;lat;lon;timestamp;P1;durP1;ratioP1;P2;durP2;ratioP2
35757;SDS011;21879;50.110;18.900;2022-08-25T00:02:54;12.50;;;6.30;;
35757;SDS011;21879;50.110;18.900;2022-08-25T00:13:25;11.20;;;6.00;;
35757;SDS011;21879;50.110;18.900;2022-08-25T00:23:53;12.10;;;6.20;;
35757;SDS011;21879;50.110;18.900;2022-08-25T00:34:23;9.70;;;4.80;;
35757;SDS011;21879;50.110;18.900;2022-08-25T00:44:54;9.80;;;6.20;;
35757;SDS011;21879;50.110;18.900;2022-08-25T00:55:26;11.10;;;6.70;;
35757;SDS011;21879;50.110;18.900;2022-08-25T01:06:00;11.10;;;5.80;;
35757;SDS011;21879;50.110;18.900;2022-08-25T01:16:31;10.30;;;5.50;;
35757;SDS011;21879;50.110;18.900;2022-08-25T01:27:01;12.90;;;7.50;;
35757;SDS011;21879;50.110;18.900;2022-08-25T01:37:31;10.60;;;6.20;;
35757;SDS011;21879;50.110;18.900;2022-08-25T01:48:01;13.80;;;6.90;;
35757;SDS011;21879;50.110;18.900;2022-08-25T01:58:32;10.40;;;6.60;;
35757;SDS011;21879;50.110;18.900;2022-08-25T02:09:04;12.90;;;7.00;;
35757;SDS011;21879;50.110;18.900;2022-08-25T02:19:35;11.20;;;6.50;;
35757;SDS011;21879;50.110;18.900;2022-08-25T02:30:04;11.90;;;7.60;;
35757;SDS011;21879;50.110;18.900;2022-08-25T02:40:35;12.50;;;8.00;;
35757;SDS011;21879;50.110;18.900;2022-08-25T02:51:04;9.50;;;6.40;;
35757;SDS011;21879;50.110;18.900;2022-08-25T03:01:35;12.70;;;6.00;;
35757;SDS011;21879;50.110;18.900;2022-08-25T03:12:05;8.40;;;5.60;;
35757;SDS011;21879;50.110;18.900;2022-08-25T03:22:35;15.30;;;6.60;;
35757;SDS011;21879;50.110;18.900;2022-08-25T03:33:04;8.60;;;4.80;;
35757;SDS011;21879;50.110;18.900;2022-08-25T03:43:33;7.50;;;5.00;;
35757;SDS011;21879;50.110;18.900;2022-08-25T03:54:03;7.30;;;4.80;;
35757;SDS011;21879;50.110;18.900;2022-08-25T04:04:32;6.50;;;4.60;;
35757;SDS011;21879;50.110;18.900;2022-08-25T04:15:02;10.10;;;6.00;;
35757;SDS011;21879;50.110;18.900;2022-08-25T04:25:32;6.20;;;4.30;;
35757;SDS011;21879;50.110;18.900;2022-08-25T04:36:01;8.40;;;4.50;;
35757;SDS011;21879;50.110;18.900;2022-08-25T04:46:36;10.30;;;6.60;;
35757;SDS011;21879;50.110;18.900;2022-08-25T04:57:06;9.70;;;6.50;;
35757;SDS011;21879;50.110;18.900;2022-08-25T05:07:35;10.10;;;5.70;;
35757;SDS011;21879;50.110;18.900;2022-08-25T05:18:05;11.00;;;7.60;;
35757;SDS011;21879;50.110;18.900;2022-08-25T05:28:34;12.60;;;7.10;;
35757;SDS011;21879;50.110;18.900;2022-08-25T05:39:05;11.30;;;7.30;;
35757;SDS011;21879;50.110;18.900;2022-08-25T05:49:34;14.60;;;9.20;;
35757;SDS011;21879;50.110;18.900;2022-08-25T06:00:04;15.20;;;8.20;;
35757;SDS011;21879;50.110;18.900;2022-08-25T06:10:35;16.90;;;8.60;;
35757;SDS011;21879;50.110;18.900;2022-08-25T06:21:07;12.00;;;7.60;;
35757;SDS011;21879;50.110;18.900;2022-08-25T06:31:38;14.60;;;9.30;;
35757;SDS011;21879;50.110;18.900;2022-08-25T06:42:08;17.00;;;7.90;;
35757;SDS011;21879;50.110;18.900;2022-08-25T06:52:36;15.10;;;7.30;;
35757;SDS011;21879;50.110;18.900;2022-08-25T07:03:06;17.10;;;7.30;;
35757;SDS011;21879;50.110;18.900;2022-08-25T07:13:35;14.30;;;7.00;;
35757;SDS011;21879;50.110;18.900;2022-08-25T07:24:06;17.30;;;7.60;;
35757;SDS011;21879;50.110;18.900;2022-08-25T07:34:37;18.70;;;7.60;;
35757;SDS011;21879;50.110;18.900;2022-08-25T07:45:24;15.10;;;8.00;;
35757;SDS011;21879;50.110;18.900;2022-08-25T07:55:55;15.60;;;8.00;;
35757;SDS011;21879;50.110;18.900;2022-08-25T08:06:24;17.00;;;7.40;;
35757;SDS011;21879;50.110;18.900;2022-08-25T08:16:54;14.20;;;7.30;;
35757;SDS011;21879;50.110;18.900;2022-08-25T08:27:24;15.70;;;7.20;;
35757;SDS011;21879;50.110;18.900;2022-08-25T08:37:53;21.20;;;7.20;;
35757;SDS011;21879;50.110;18.900;2022-08-25T08:48:37;16.10;;;7.40;;
35757;SDS011;21879;50.110;18.900;2022-08-25T08:59:16;23.90;;;8.20;;
35757;SDS011;21879;50.110;18.900;2022-08-25T09:09:54;17.20;;;8.20;;
35757;SDS011;21879;50.110;18.900;2022-08-25T09:20:29;32.80;;;8.80;;
35757;SDS011;21879;50.110;18.900;2022-08-25T09:31:11;24.50;;;8.70;;
35757;SDS011;21879;50.110;18.900;2022-08-25T09:41:45;21.70;;;10.40;;
35757;SDS011;21879;50.110;18.900;2022-08-25T09:52:19;20.50;;;8.70;;
35757;SDS011;21879;50.110;18.900;2022-08-25T10:03:04;20.20;;;8.50;;
35757;SDS011;21879;50.110;18.900;2022-08-25T10:13:38;24.10;;;9.50;;
35757;SDS011;21879;50.110;18.900;2022-08-25T10:24:10;21.70;;;9.60;;
35757;SDS011;21879;50.110;18.900;2022-08-25T10:34:43;18.40;;;9.50;;
35757;SDS011;21879;50.110;18.900;2022-08-25T10:45:18;19.50;;;10.10;;
35757;SDS011;21879;50.110;18.900;2022-08-25T10:56:09;24.10;;;10.40;;
35757;SDS011;21879;50.110;18.900;2022-08-25T11:06:43;24.10;;;10.00;;
35757;SDS011;21879;50.110;18.900;2022-08-25T11:17:19;18.00;;;9.40;;
35757;SDS011;21879;50.110;18.900;2022-08-25T11:27:54;20.90;;;10.30;;
35757;SDS011;21879;50.110;18.900;2022-08-25T11:38:33;18.80;;;10.10;;
35757;SDS011;21879;50.110;18.900;2022-08-25T11:49:20;18.60;;;9.70;;
35757;SDS011;21879;50.110;18.900;2022-08-25T12:00:06;23.30;;;10.90;;
35757;SDS011;21879;50.110;18.900;2022-08-25T12:10:56;21.90;;;9.00;;
35757;SDS011;21879;50.110;18.900;2022-08-25T12:21:34;18.00;;;9.20;;
35757;SDS011;21879;50.110;18.900;2022-08-25T12:32:21;20.70;;;8.90;;
35757;SDS011;21879;50.110;18.900;2022-08-25T12:43:07;14.00;;;7.50;;
35757;SDS011;21879;50.110;18.900;2022-08-25T12:53:45;16.20;;;8.30;;
35757;SDS011;21879;50.110;18.900;2022-08-25T13:04:26;15.30;;;7.60;;
35757;SDS011;21879;50.110;18.900;2022-08-25T13:15:09;12.80;;;6.80;;
35757;SDS011;21879;50.110;18.900;2022-08-25T13:25:45;15.90;;;8.60;;
35757;SDS011;21879;50.110;18.900;2022-08-25T13:36:16;15.80;;;7.00;;
35757;SDS011;21879;50.110;18.900;2022-08-25T13:47:06;14.30;;;6.80;;
35757;SDS011;21879;50.110;18.900;2022-08-25T13:57:40;17.90;;;7.70;;
35757;SDS011;21879;50.110;18.900;2022-08-25T14:18:46;16.40;;;7.10;;
35757;SDS011;21879;50.110;18.900;2022-08-25T14:29:20;15.60;;;6.20;;
35757;SDS011;21879;50.110;18.900;2022-08-25T14:39:49;19.20;;;7.40;;
35757;SDS011;21879;50.110;18.900;2022-08-25T14:50:19;19.70;;;7.50;;
35757;SDS011;21879;50.110;18.900;2022-08-25T15:00:48;17.40;;;6.30;;
35757;SDS011;21879;50.110;18.900;2022-08-25T15:11:18;17.00;;;7.30;;
35757;SDS011;21879;50.110;18.900;2022-08-25T15:21:47;19.10;;;6.40;;
35757;SDS011;21879;50.110;18.900;2022-08-25T15:32:16;19.80;;;7.30;;
35757;SDS011;21879;50.110;18.900;2022-08-25T15:42:45;17.80;;;7.10;;
35757;SDS011;21879;50.110;18.900;2022-08-25T15:53:16;18.10;;;6.10;;
35757;SDS011;21879;50.110;18.900;2022-08-25T16:03:46;17.00;;;7.60;;
35757;SDS011;21879;50.110;18.900;2022-08-25T16:14:15;18.80;;;7.40;;
35757;SDS011;21879;50.110;18.900;2022-08-25T16:24:44;23.80;;;6.60;;
35757;SDS011;21879;50.110;18.900;2022-08-25T16:35:13;24.90;;;7.30;;
35757;SDS011;21879;50.110;18.900;2022-08-25T16:45:42;12.00;;;7.30;;
35757;SDS011;21879;50.110;18.900;2022-08-25T16:56:11;20.40;;;7.30;;
35757;SDS011;21879;50.110;18.900;2022-08-25T17:06:41;19.70;;;8.90;;
35757;SDS011;21879;50.110;18.900;2022-08-25T17:17:16;16.80;;;9.00;;
35757;SDS011;21879;50.110;18.900;2022-08-25T17:27:51;22.40;;;8.90;;
35757;SDS011;21879;50.110;18.900;2022-08-25T17:38:21;13.60;;;8.70;;
35757;SDS011;21879;50.110;18.900;2022-08-25T17:48:52;15.80;;;8.50;;
35757;SDS011;21879;50.110;18.900;2022-08-25T17:59:22;20.20;;;9.20;;
35757;SDS011;21879;50.110;18.900;2022-08-25T18:09:56;16.20;;;8.30;;
35757;SDS011;21879;50.110;18.900;2022-08-25T18:20:26;18.70;;;9.90;;
35757;SDS011;21879;50.110;18.900;2022-08-25T18:30:55;15.10;;;8.90;;
35757;SDS011;21879;50.110;18.900;2022-08-25T18:41:24;15.90;;;8.90;;
35757;SDS011;21879;50.110;18.900;2022-08-25T18:51:54;21.40;;;11.10;;
35757;SDS011;21879;50.110;18.900;2022-08-25T19:02:24;17.50;;;9.80;;
35757;SDS011;21879;50.110;18.900;2022-08-25T19:12:53;21.60;;;10.00;;
35757;SDS011;21879;50.110;18.900;2022-08-25T19:23:32;17.60;;;9.60;;
35757;SDS011;21879;50.110;18.900;2022-08-25T19:34:03;15.70;;;9.40;;
35757;SDS011;21879;50.110;18.900;2022-08-25T19:44:35;15.80;;;7.30;;
35757;SDS011;21879;50.110;18.900;2022-08-25T19:55:06;16.20;;;8.60;;
35757;SDS011;21879;50.110;18.900;2022-08-25T20:05:36;18.20;;;8.10;;
35757;SDS011;21879;50.110;18.900;2022-08-25T20:16:06;16.20;;;9.40;;
35757;SDS011;21879;50.110;18.900;2022-08-25T20:26:36;20.40;;;10.50;;
35757;SDS011;21879;50.110;18.900;2022-08-25T20:37:07;15.40;;;9.70;;
35757;SDS011;21879;50.110;18.900;2022-08-25T20:47:36;19.20;;;10.20;;
35757;SDS011;21879;50.110;18.900;2022-08-25T20:58:06;15.80;;;9.70;;
35757;SDS011;21879;50.110;18.900;2022-08-25T21:08:35;13.90;;;7.60;;
35757;SDS011;21879;50.110;18.900;2022-08-25T21:19:11;10.60;;;7.60;;
35757;SDS011;21879;50.110;18.900;2022-08-25T21:29:50;18.50;;;8.30;;
35757;SDS011;21879;50.110;18.900;2022-08-25T21:40:20;14.10;;;8.00;;
35757;SDS011;21879;50.110;18.900;2022-08-25T21:50:50;13.70;;;8.40;;
35757;SDS011;21879;50.110;18.900;2022-08-25T22:01:30;13.40;;;8.60;;
35757;SDS011;21879;50.110;18.900;2022-08-25T22:12:00;10.50;;;8.10;;
35757;SDS011;21879;50.110;18.900;2022-08-25T22:22:29;8.90;;;6.50;;
35757;SDS011;21879;50.110;18.900;2022-08-25T22:32:58;10.80;;;7.60;;
35757;SDS011;21879;50.110;18.900;2022-08-25T22:43:27;10.90;;;6.00;;
35757;SDS011;21879;50.110;18.900;2022-08-25T22:53:57;16.10;;;9.40;;
35757;SDS011;21879;50.110;18.900;2022-08-25T23:04:28;11.70;;;9.60;;
35757;SDS011;21879;50.110;18.900;2022-08-25T23:14:57;13.00;;;8.40;;
35757;SDS011;21879;50.110;18.900;2022-08-25T23:25:26;14.80;;;8.10;;
35757;SDS011;21879;50.110;18.900;2022-08-25T23:35:59;6.50;;;5.10;;
35757;SDS011;21879;50.110;18.900;2022-08-25T23:46:34;17.60;;;9.40;;
35757;SDS011;21879;50.110;18.900;2022-08-25T23:57:03;12.10;;;8.20;;
